sensor_id;sensor_type;location;lat;lon;timestamp;P1;durP1;ratioP1;P2;durP2;ratioP2
6424;SDS011;12193;42.642;23.384;2023-02-03T00:02:19;5.33;;;2.80;;
6424;SDS011;12193;42.642;23.384;2023-02-03T00:04:48;3.90;;;2.50;;
6424;SDS011;12193;42.642;23.384;2023-02-03T00:07:17;5.03;;;2.70;;
6424;SDS011;12193;42.642;23.384;2023-02-03T00:09:47;3.90;;;2.50;;
6424;SDS011;12193;42.642;23.384;2023-02-03T00:12:16;4.97;;;2.17;;
6424;SDS011;12193;42.642;23.384;2023-02-03T00:14:48;5.90;;;2.70;;
6424;SDS011;12193;42.642;23.384;2023-02-03T00:17:18;4.33;;;2.50;;
6424;SDS011;12193;42.642;23.384;2023-02-03T00:19:47;5.47;;;2.80;;
6424;SDS011;12193;42.642;23.384;2023-02-03T00:22:17;5.03;;;2.90;;
6424;SDS011;12193;42.642;23.384;2023-02-03T00:24:46;6.23;;;2.93;;
6424;SDS011;12193;42.642;23.384;2023-02-03T00:27:16;5.23;;;2.80;;
6424;SDS011;12193;42.642;23.384;2023-02-03T00:29:45;4.83;;;2.90;;
6424;SDS011;12193;42.642;23.384;2023-02-03T00:32:17;5.57;;;3.10;;
6424;SDS011;12193;42.642;23.384;2023-02-03T00:34:46;5.57;;;3.27;;
6424;SDS011;12193;42.642;23.384;2023-02-03T00:37:16;5.33;;;3.13;;
6424;SDS011;12193;42.642;23.384;2023-02-03T00:39:45;6.40;;;3.37;;
6424;SDS011;12193;42.642;23.384;2023-02-03T00:42:14;5.33;;;3.37;;
6424;SDS011;12193;42.642;23.384;2023-02-03T00:44:44;5.70;;;3.20;;
6424;SDS011;12193;42.642;23.384;2023-02-03T00:47:16;5.10;;;3.40;;
6424;SDS011;12193;42.642;23.384;2023-02-03T00:49:45;5.77;;;3.63;;
6424;SDS011;12193;42.642;23.384;2023-02-03T00:52:15;5.03;;;3.40;;
6424;SDS011;12193;42.642;23.384;2023-02-03T00:54:44;6.23;;;3.63;;
6424;SDS011;12193;42.642;23.384;2023-02-03T00:57:13;6.17;;;3.73;;
6424;SDS011;12193;42.642;23.384;2023-02-03T00:59:43;5.80;;;3.57;;
6424;SDS011;12193;42.642;23.384;2023-02-03T01:02:12;6.23;;;3.33;;
6424;SDS011;12193;42.642;23.384;2023-02-03T01:04:44;4.80;;;3.30;;
6424;SDS011;12193;42.642;23.384;2023-02-03T04:08:26;3.90;;;2.47;;
6424;SDS011;12193;42.642;23.384;2023-02-03T04:10:55;3.83;;;2.27;;
6424;SDS011;12193;42.642;23.384;2023-02-03T04:13:25;3.50;;;2.70;;
6424;SDS011;12193;42.642;23.384;2023-02-03T04:15:55;4.13;;;2.50;;
6424;SDS011;12193;42.642;23.384;2023-02-03T04:18:24;4.60;;;2.80;;
6424;SDS011;12193;42.642;23.384;2023-02-03T04:20:53;4.07;;;2.90;;
6424;SDS011;12193;42.642;23.384;2023-02-03T04:23:23;3.77;;;2.73;;
6424;SDS011;12193;42.642;23.384;2023-02-03T04:25:54;5.73;;;2.90;;
6424;SDS011;12193;42.642;23.384;2023-02-03T04:28:24;4.93;;;3.17;;
6424;SDS011;12193;42.642;23.384;2023-02-03T04:30:53;4.50;;;3.00;;
6424;SDS011;12193;42.642;23.384;2023-02-03T04:33:23;3.73;;;2.83;;
6424;SDS011;12193;42.642;23.384;2023-02-03T04:35:52;4.27;;;2.93;;
6424;SDS011;12193;42.642;23.384;2023-02-03T04:38:21;3.23;;;2.77;;
6424;SDS011;12193;42.642;23.384;2023-02-03T04:40:53;3.67;;;2.63;;
6424;SDS011;12193;42.642;23.384;2023-02-03T04:43:22;4.27;;;2.97;;
6424;SDS011;12193;42.642;23.384;2023-02-03T04:45:52;3.73;;;2.67;;
6424;SDS011;12193;42.642;23.384;2023-02-03T04:48:21;3.43;;;2.93;;
6424;SDS011;12193;42.642;23.384;2023-02-03T04:50:51;4.07;;;2.73;;
6424;SDS011;12193;42.642;23.384;2023-02-03T04:53:20;5.20;;;3.20;;
6424;SDS011;12193;42.642;23.384;2023-02-03T04:55:49;4.63;;;2.93;;
6424;SDS011;12193;42.642;23.384;2023-02-03T04:58:21;3.53;;;2.77;;
6424;SDS011;12193;42.642;23.384;2023-02-03T05:00:51;4.57;;;3.13;;
6424;SDS011;12193;42.642;23.384;2023-02-03T05:03:21;5.33;;;3.00;;
6424;SDS011;12193;42.642;23.384;2023-02-03T05:05:50;5.00;;;3.17;;
6424;SDS011;12193;42.642;23.384;2023-02-03T05:08:20;5.07;;;3.10;;
6424;SDS011;12193;42.642;23.384;2023-02-03T05:10:49;4.20;;;3.27;;
6424;SDS011;12193;42.642;23.384;2023-02-03T05:13:21;4.50;;;3.10;;
6424;SDS011;12193;42.642;23.384;2023-02-03T05:15:51;6.07;;;3.90;;
6424;SDS011;12193;42.642;23.384;2023-02-03T05:18:20;5.43;;;3.70;;
6424;SDS011;12193;42.642;23.384;2023-02-03T05:20:50;3.67;;;2.83;;
6424;SDS011;12193;42.642;23.384;2023-02-03T05:23:19;4.03;;;3.17;;
6424;SDS011;12193;42.642;23.384;2023-02-03T05:25:48;3.23;;;2.60;;
6424;SDS011;12193;42.642;23.384;2023-02-03T05:28:17;4.40;;;3.23;;
6424;SDS011;12193;42.642;23.384;2023-02-03T05:30:50;6.47;;;3.77;;
6424;SDS011;12193;42.642;23.384;2023-02-03T05:33:19;4.70;;;3.37;;
6424;SDS011;12193;42.642;23.384;2023-02-03T05:35:48;5.87;;;3.40;;
6424;SDS011;12193;42.642;23.384;2023-02-03T05:38:18;5.53;;;3.67;;
6424;SDS011;12193;42.642;23.384;2023-02-03T05:40:47;4.40;;;3.40;;
6424;SDS011;12193;42.642;23.384;2023-02-03T05:43:32;5.33;;;3.50;;
6424;SDS011;12193;42.642;23.384;2023-02-03T05:46:01;7.87;;;4.17;;
6424;SDS011;12193;42.642;23.384;2023-02-03T05:48:32;3.77;;;3.27;;
6424;SDS011;12193;42.642;23.384;2023-02-03T05:51:02;4.43;;;3.43;;
6424;SDS011;12193;42.642;23.384;2023-02-03T05:53:31;6.20;;;3.87;;
6424;SDS011;12193;42.642;23.384;2023-02-03T05:56:00;6.57;;;3.77;;
6424;SDS011;12193;42.642;23.384;2023-02-03T05:58:33;4.13;;;3.03;;
6424;SDS011;12193;42.642;23.384;2023-02-03T06:01:02;3.67;;;2.97;;
6424;SDS011;12193;42.642;23.384;2023-02-03T06:03:32;5.87;;;3.90;;
6424;SDS011;12193;42.642;23.384;2023-02-03T06:06:01;4.57;;;3.40;;
6424;SDS011;12193;42.642;23.384;2023-02-03T06:08:30;4.40;;;3.40;;
6424;SDS011;12193;42.642;23.384;2023-02-03T06:11:00;5.53;;;3.47;;
6424;SDS011;12193;42.642;23.384;2023-02-03T06:13:32;5.00;;;3.50;;
6424;SDS011;12193;42.642;23.384;2023-02-03T06:16:01;5.33;;;3.60;;
6424;SDS011;12193;42.642;23.384;2023-02-03T06:18:31;6.20;;;3.23;;
6424;SDS011;12193;42.642;23.384;2023-02-03T06:21:00;4.93;;;3.60;;
6424;SDS011;12193;42.642;23.384;2023-02-03T06:23:29;4.77;;;3.50;;
6424;SDS011;12193;42.642;23.384;2023-02-03T06:25:58;4.83;;;3.60;;
6424;SDS011;12193;42.642;23.384;2023-02-03T06:28:28;5.27;;;3.23;;
6424;SDS011;12193;42.642;23.384;2023-02-03T06:31:01;5.80;;;3.63;;
6424;SDS011;12193;42.642;23.384;2023-02-03T06:33:30;6.33;;;3.60;;
6424;SDS011;12193;42.642;23.384;2023-02-03T06:35:59;4.20;;;3.00;;
6424;SDS011;12193;42.642;23.384;2023-02-03T06:38:29;4.10;;;3.13;;
6424;SDS011;12193;42.642;23.384;2023-02-03T06:40:58;5.13;;;2.70;;
6424;SDS011;12193;42.642;23.384;2023-02-03T06:43:27;3.50;;;2.60;;
6424;SDS011;12193;42.642;23.384;2023-02-03T06:45:56;3.73;;;2.73;;
6424;SDS011;12193;42.642;23.384;2023-02-03T06:48:29;3.70;;;3.00;;
6424;SDS011;12193;42.642;23.384;2023-02-03T06:50:58;3.73;;;2.90;;
6424;SDS011;12193;42.642;23.384;2023-02-03T06:53:27;5.47;;;2.90;;
6424;SDS011;12193;42.642;23.384;2023-02-03T06:55:56;3.93;;;2.50;;
6424;SDS011;12193;42.642;23.384;2023-02-03T06:58:26;3.73;;;2.63;;
6424;SDS011;12193;42.642;23.384;2023-02-03T07:00:56;3.97;;;2.83;;
6424;SDS011;12193;42.642;23.384;2023-02-03T07:03:28;4.73;;;2.53;;
6424;SDS011;12193;42.642;23.384;2023-02-03T07:05:57;4.20;;;2.50;;
6424;SDS011;12193;42.642;23.384;2023-02-03T07:08:27;3.37;;;2.57;;
6424;SDS011;12193;42.642;23.384;2023-02-03T07:10:56;2.90;;;2.47;;
6424;SDS011;12193;42.642;23.384;2023-02-03T07:13:25;4.63;;;2.47;;
6424;SDS011;12193;42.642;23.384;2023-02-03T07:15:54;3.03;;;2.40;;
6424;SDS011;12193;42.642;23.384;2023-02-03T07:18:24;3.33;;;2.70;;
6424;SDS011;12193;42.642;23.384;2023-02-03T07:20:58;4.10;;;2.83;;
6424;SDS011;12193;42.642;23.384;2023-02-03T07:23:27;3.67;;;2.70;;
6424;SDS011;12193;42.642;23.384;2023-02-03T07:25:57;4.73;;;2.70;;
6424;SDS011;12193;42.642;23.384;2023-02-03T07:28:27;4.37;;;2.93;;
6424;SDS011;12193;42.642;23.384;2023-02-03T07:30:56;4.37;;;2.50;;
6424;SDS011;12193;42.642;23.384;2023-02-03T07:33:26;4.77;;;2.70;;
6424;SDS011;12193;42.642;23.384;2023-02-03T07:36:01;3.57;;;2.40;;
6424;SDS011;12193;42.642;23.384;2023-02-03T07:38:31;4.37;;;2.30;;
6424;SDS011;12193;42.642;23.384;2023-02-03T07:41:02;4.07;;;2.90;;
6424;SDS011;12193;42.642;23.384;2023-02-03T07:43:33;3.73;;;2.90;;
6424;SDS011;12193;42.642;23.384;2023-02-03T07:46:03;4.30;;;2.97;;
6424;SDS011;12193;42.642;23.384;2023-02-03T07:48:32;4.33;;;2.97;;
6424;SDS011;12193;42.642;23.384;2023-02-03T07:51:04;4.20;;;2.83;;
6424;SDS011;12193;42.642;23.384;2023-02-03T07:53:34;3.93;;;2.40;;
6424;SDS011;12193;42.642;23.384;2023-02-03T07:56:03;3.73;;;2.97;;
6424;SDS011;12193;42.642;23.384;2023-02-03T07:58:33;6.10;;;3.13;;
6424;SDS011;12193;42.642;23.384;2023-02-03T08:01:08;3.23;;;2.60;;
6424;SDS011;12193;42.642;23.384;2023-02-03T08:03:40;4.60;;;2.60;;
6424;SDS011;12193;42.642;23.384;2023-02-03T08:06:13;4.00;;;2.50;;
6424;SDS011;12193;42.642;23.384;2023-02-03T08:08:42;4.83;;;2.47;;
6424;SDS011;12193;42.642;23.384;2023-02-03T08:11:11;5.23;;;2.53;;
6424;SDS011;12193;42.642;23.384;2023-02-03T08:13:41;2.90;;;2.30;;
6424;SDS011;12193;42.642;23.384;2023-02-03T08:16:10;6.07;;;2.83;;
6424;SDS011;12193;42.642;23.384;2023-02-03T08:18:39;5.70;;;2.50;;
6424;SDS011;12193;42.642;23.384;2023-02-03T08:21:08;3.07;;;2.10;;
6424;SDS011;12193;42.642;23.384;2023-02-03T08:23:41;4.77;;;2.30;;
6424;SDS011;12193;42.642;23.384;2023-02-03T08:26:10;3.63;;;2.40;;
6424;SDS011;12193;42.642;23.384;2023-02-03T08:28:39;4.70;;;2.47;;
6424;SDS011;12193;42.642;23.384;2023-02-03T08:31:09;5.70;;;2.60;;
6424;SDS011;12193;42.642;23.384;2023-02-03T08:33:38;3.13;;;2.20;;
6424;SDS011;12193;42.642;23.384;2023-02-03T08:36:08;2.40;;;2.20;;
6424;SDS011;12193;42.642;23.384;2023-02-03T08:38:43;2.80;;;1.93;;
6424;SDS011;12193;42.642;23.384;2023-02-03T08:41:13;3.57;;;2.07;;
6424;SDS011;12193;42.642;23.384;2023-02-03T08:43:45;2.67;;;2.30;;
6424;SDS011;12193;42.642;23.384;2023-02-03T08:46:15;2.30;;;2.10;;
6424;SDS011;12193;42.642;23.384;2023-02-03T08:48:44;2.53;;;1.77;;
6424;SDS011;12193;42.642;23.384;2023-02-03T08:51:15;3.77;;;2.20;;
6424;SDS011;12193;42.642;23.384;2023-02-03T08:53:47;3.43;;;2.17;;
6424;SDS011;12193;42.642;23.384;2023-02-03T08:56:17;3.33;;;2.30;;
6424;SDS011;12193;42.642;23.384;2023-02-03T08:58:46;2.20;;;2.00;;
6424;SDS011;12193;42.642;23.384;2023-02-03T09:01:15;8.43;;;2.27;;
6424;SDS011;12193;42.642;23.384;2023-02-03T09:03:45;4.83;;;2.30;;
6424;SDS011;12193;42.642;23.384;2023-02-03T09:06:14;2.67;;;2.00;;
6424;SDS011;12193;42.642;23.384;2023-02-03T09:08:44;2.70;;;2.03;;
6424;SDS011;12193;42.642;23.384;2023-02-03T09:11:17;4.07;;;2.03;;
6424;SDS011;12193;42.642;23.384;2023-02-03T09:13:46;2.13;;;1.73;;
6424;SDS011;12193;42.642;23.384;2023-02-03T09:16:16;3.53;;;2.07;;
6424;SDS011;12193;42.642;23.384;2023-02-03T09:18:47;3.17;;;2.60;;
6424;SDS011;12193;42.642;23.384;2023-02-03T09:21:17;3.43;;;2.10;;
6424;SDS011;12193;42.642;23.384;2023-02-03T09:23:49;2.53;;;1.93;;
6424;SDS011;12193;42.642;23.384;2023-02-03T09:26:19;2.30;;;2.03;;
6424;SDS011;12193;42.642;23.384;2023-02-03T09:28:48;5.30;;;2.00;;
6424;SDS011;12193;42.642;23.384;2023-02-03T09:31:17;2.37;;;1.83;;
6424;SDS011;12193;42.642;23.384;2023-02-03T09:33:46;3.30;;;2.10;;
6424;SDS011;12193;42.642;23.384;2023-02-03T09:36:16;3.07;;;2.10;;
6424;SDS011;12193;42.642;23.384;2023-02-03T09:38:45;2.80;;;2.17;;
6424;SDS011;12193;42.642;23.384;2023-02-03T09:41:24;2.47;;;2.07;;
6424;SDS011;12193;42.642;23.384;2023-02-03T09:44:10;6.20;;;2.07;;
6424;SDS011;12193;42.642;23.384;2023-02-03T09:46:47;2.27;;;1.93;;
6424;SDS011;12193;42.642;23.384;2023-02-03T09:49:22;2.70;;;1.97;;
6424;SDS011;12193;42.642;23.384;2023-02-03T09:51:56;2.30;;;1.80;;
6424;SDS011;12193;42.642;23.384;2023-02-03T09:54:33;2.83;;;1.90;;
6424;SDS011;12193;42.642;23.384;2023-02-03T09:57:13;4.57;;;2.10;;
6424;SDS011;12193;42.642;23.384;2023-02-03T09:59:48;4.13;;;2.13;;
6424;SDS011;12193;42.642;23.384;2023-02-03T10:02:21;3.43;;;2.30;;
6424;SDS011;12193;42.642;23.384;2023-02-03T10:05:06;4.73;;;2.10;;
6424;SDS011;12193;42.642;23.384;2023-02-03T10:07:45;2.40;;;1.90;;
6424;SDS011;12193;42.642;23.384;2023-02-03T10:10:21;4.10;;;2.20;;
6424;SDS011;12193;42.642;23.384;2023-02-03T10:13:06;2.63;;;2.10;;
6424;SDS011;12193;42.642;23.384;2023-02-03T10:15:46;3.97;;;2.00;;
6424;SDS011;12193;42.642;23.384;2023-02-03T10:18:25;2.57;;;2.00;;
6424;SDS011;12193;42.642;23.384;2023-02-03T10:20:58;6.07;;;2.20;;
6424;SDS011;12193;42.642;23.384;2023-02-03T10:23:33;2.90;;;1.60;;
6424;SDS011;12193;42.642;23.384;2023-02-03T10:26:06;3.23;;;2.10;;
6424;SDS011;12193;42.642;23.384;2023-02-03T10:28:44;2.77;;;1.87;;
6424;SDS011;12193;42.642;23.384;2023-02-03T10:31:21;2.57;;;1.83;;
6424;SDS011;12193;42.642;23.384;2023-02-03T10:33:54;4.93;;;2.50;;
6424;SDS011;12193;42.642;23.384;2023-02-03T10:36:32;2.30;;;1.80;;
6424;SDS011;12193;42.642;23.384;2023-02-03T10:39:14;3.90;;;2.00;;
6424;SDS011;12193;42.642;23.384;2023-02-03T10:41:48;3.50;;;2.10;;
6424;SDS011;12193;42.642;23.384;2023-02-03T10:44:21;2.63;;;2.10;;
6424;SDS011;12193;42.642;23.384;2023-02-03T10:46:58;3.87;;;2.37;;
6424;SDS011;12193;42.642;23.384;2023-02-03T10:49:27;2.80;;;2.13;;
6424;SDS011;12193;42.642;23.384;2023-02-03T10:51:58;2.77;;;2.23;;
6424;SDS011;12193;42.642;23.384;2023-02-03T10:54:30;2.67;;;2.10;;
6424;SDS011;12193;42.642;23.384;2023-02-03T10:57:02;3.53;;;2.10;;
6424;SDS011;12193;42.642;23.384;2023-02-03T10:59:38;2.77;;;2.40;;
6424;SDS011;12193;42.642;23.384;2023-02-03T11:02:18;4.03;;;2.40;;
6424;SDS011;12193;42.642;23.384;2023-02-03T11:07:46;3.37;;;2.43;;
6424;SDS011;12193;42.642;23.384;2023-02-03T11:10:30;3.10;;;2.40;;
6424;SDS011;12193;42.642;23.384;2023-02-03T11:13:12;4.37;;;2.37;;
6424;SDS011;12193;42.642;23.384;2023-02-03T11:15:53;3.30;;;2.33;;
6424;SDS011;12193;42.642;23.384;2023-02-03T11:18:25;3.20;;;1.90;;
6424;SDS011;12193;42.642;23.384;2023-02-03T11:21:05;4.00;;;2.17;;
6424;SDS011;12193;42.642;23.384;2023-02-03T11:23:47;2.27;;;1.87;;
6424;SDS011;12193;42.642;23.384;2023-02-03T11:26:23;6.13;;;2.23;;
6424;SDS011;12193;42.642;23.384;2023-02-03T11:28:55;3.63;;;2.10;;
6424;SDS011;12193;42.642;23.384;2023-02-03T11:31:30;2.30;;;2.00;;
6424;SDS011;12193;42.642;23.384;2023-02-03T11:34:02;3.27;;;2.07;;
6424;SDS011;12193;42.642;23.384;2023-02-03T11:36:34;2.27;;;1.90;;
6424;SDS011;12193;42.642;23.384;2023-02-03T11:39:10;2.67;;;1.83;;
6424;SDS011;12193;42.642;23.384;2023-02-03T11:41:48;3.13;;;1.80;;
6424;SDS011;12193;42.642;23.384;2023-02-03T11:44:19;4.00;;;2.10;;
6424;SDS011;12193;42.642;23.384;2023-02-03T11:46:54;4.97;;;2.10;;
6424;SDS011;12193;42.642;23.384;2023-02-03T11:55:32;2.60;;;1.90;;
6424;SDS011;12193;42.642;23.384;2023-02-03T12:01:24;3.30;;;2.00;;
6424;SDS011;12193;42.642;23.384;2023-02-03T12:04:30;2.60;;;2.17;;
6424;SDS011;12193;42.642;23.384;2023-02-03T12:07:31;3.77;;;2.20;;
6424;SDS011;12193;42.642;23.384;2023-02-03T12:10:11;3.30;;;2.03;;
6424;SDS011;12193;42.642;23.384;2023-02-03T12:12:55;2.40;;;1.93;;
6424;SDS011;12193;42.642;23.384;2023-02-03T12:15:48;2.90;;;1.90;;
6424;SDS011;12193;42.642;23.384;2023-02-03T12:18:38;2.43;;;1.93;;
6424;SDS011;12193;42.642;23.384;2023-02-03T12:24:18;2.13;;;1.70;;
6424;SDS011;12193;42.642;23.384;2023-02-03T12:27:00;2.77;;;2.00;;
6424;SDS011;12193;42.642;23.384;2023-02-03T12:29:41;3.27;;;1.77;;
6424;SDS011;12193;42.642;23.384;2023-02-03T12:32:16;2.60;;;1.93;;
6424;SDS011;12193;42.642;23.384;2023-02-03T12:34:53;3.80;;;2.00;;
6424;SDS011;12193;42.642;23.384;2023-02-03T12:37:33;2.83;;;1.90;;
6424;SDS011;12193;42.642;23.384;2023-02-03T12:40:11;2.90;;;2.10;;
6424;SDS011;12193;42.642;23.384;2023-02-03T12:42:45;2.37;;;1.73;;
6424;SDS011;12193;42.642;23.384;2023-02-03T12:45:20;5.77;;;2.10;;
6424;SDS011;12193;42.642;23.384;2023-02-03T12:47:55;3.87;;;1.90;;
6424;SDS011;12193;42.642;23.384;2023-02-03T12:50:29;4.07;;;1.83;;
6424;SDS011;12193;42.642;23.384;2023-02-03T12:53:09;2.73;;;1.90;;
6424;SDS011;12193;42.642;23.384;2023-02-03T12:55:43;3.87;;;1.90;;
6424;SDS011;12193;42.642;23.384;2023-02-03T12:58:22;2.90;;;2.10;;
6424;SDS011;12193;42.642;23.384;2023-02-03T13:00:55;2.27;;;1.90;;
6424;SDS011;12193;42.642;23.384;2023-02-03T13:03:29;4.20;;;2.20;;
6424;SDS011;12193;42.642;23.384;2023-02-03T13:06:05;4.67;;;2.20;;
6424;SDS011;12193;42.642;23.384;2023-02-03T13:08:43;4.13;;;2.13;;
6424;SDS011;12193;42.642;23.384;2023-02-03T13:11:21;3.30;;;2.20;;
6424;SDS011;12193;42.642;23.384;2023-02-03T13:13:57;3.00;;;2.00;;
6424;SDS011;12193;42.642;23.384;2023-02-03T13:16:32;2.90;;;2.20;;
6424;SDS011;12193;42.642;23.384;2023-02-03T13:19:05;2.47;;;2.10;;
6424;SDS011;12193;42.642;23.384;2023-02-03T13:21:41;4.27;;;2.40;;
6424;SDS011;12193;42.642;23.384;2023-02-03T13:24:14;4.33;;;2.30;;
6424;SDS011;12193;42.642;23.384;2023-02-03T13:26:56;2.73;;;2.20;;
6424;SDS011;12193;42.642;23.384;2023-02-03T13:29:51;3.37;;;2.13;;
6424;SDS011;12193;42.642;23.384;2023-02-03T13:32:37;4.10;;;2.70;;
6424;SDS011;12193;42.642;23.384;2023-02-03T13:35:22;4.80;;;2.60;;
6424;SDS011;12193;42.642;23.384;2023-02-03T13:41:18;3.90;;;2.20;;
6424;SDS011;12193;42.642;23.384;2023-02-03T13:43:52;6.37;;;2.73;;
6424;SDS011;12193;42.642;23.384;2023-02-03T13:46:26;4.20;;;2.77;;
6424;SDS011;12193;42.642;23.384;2023-02-03T13:48:58;6.37;;;2.90;;
6424;SDS011;12193;42.642;23.384;2023-02-03T13:51:31;4.90;;;2.80;;
6424;SDS011;12193;42.642;23.384;2023-02-03T13:54:02;4.93;;;2.73;;
6424;SDS011;12193;42.642;23.384;2023-02-03T13:56:37;5.63;;;2.90;;
6424;SDS011;12193;42.642;23.384;2023-02-03T13:59:19;4.77;;;2.67;;
6424;SDS011;12193;42.642;23.384;2023-02-03T14:04:59;4.47;;;2.80;;
6424;SDS011;12193;42.642;23.384;2023-02-03T14:07:31;6.03;;;3.37;;
6424;SDS011;12193;42.642;23.384;2023-02-03T14:10:08;5.87;;;3.30;;
6424;SDS011;12193;42.642;23.384;2023-02-03T14:12:57;9.83;;;2.70;;
6424;SDS011;12193;42.642;23.384;2023-02-03T14:15:29;5.97;;;2.93;;
6424;SDS011;12193;42.642;23.384;2023-02-03T14:18:05;6.90;;;2.90;;
6424;SDS011;12193;42.642;23.384;2023-02-03T14:23:57;5.63;;;2.70;;
6424;SDS011;12193;42.642;23.384;2023-02-03T14:26:36;6.30;;;3.00;;
6424;SDS011;12193;42.642;23.384;2023-02-03T14:29:23;5.27;;;3.10;;
6424;SDS011;12193;42.642;23.384;2023-02-03T14:31:55;5.97;;;2.90;;
6424;SDS011;12193;42.642;23.384;2023-02-03T14:34:30;7.97;;;3.23;;
6424;SDS011;12193;42.642;23.384;2023-02-03T14:37:08;4.97;;;3.20;;
6424;SDS011;12193;42.642;23.384;2023-02-03T14:43:00;4.87;;;3.03;;
6424;SDS011;12193;42.642;23.384;2023-02-03T14:52:13;6.60;;;3.33;;
6424;SDS011;12193;42.642;23.384;2023-02-03T14:54:56;4.87;;;3.07;;
6424;SDS011;12193;42.642;23.384;2023-02-03T14:57:37;6.03;;;2.93;;
6424;SDS011;12193;42.642;23.384;2023-02-03T15:00:28;5.33;;;3.10;;
6424;SDS011;12193;42.642;23.384;2023-02-03T15:05:55;4.90;;;2.70;;
6424;SDS011;12193;42.642;23.384;2023-02-03T15:11:20;4.50;;;3.00;;
6424;SDS011;12193;42.642;23.384;2023-02-03T15:13:56;4.40;;;2.93;;
6424;SDS011;12193;42.642;23.384;2023-02-03T15:16:41;6.27;;;3.70;;
6424;SDS011;12193;42.642;23.384;2023-02-03T15:19:18;4.07;;;3.17;;
6424;SDS011;12193;42.642;23.384;2023-02-03T15:21:50;5.03;;;3.10;;
6424;SDS011;12193;42.642;23.384;2023-02-03T15:24:20;6.33;;;3.33;;
6424;SDS011;12193;42.642;23.384;2023-02-03T15:26:51;5.23;;;3.40;;
6424;SDS011;12193;42.642;23.384;2023-02-03T15:29:23;4.37;;;2.80;;
6424;SDS011;12193;42.642;23.384;2023-02-03T15:32:00;5.60;;;2.80;;
6424;SDS011;12193;42.642;23.384;2023-02-03T15:34:37;4.27;;;3.03;;
6424;SDS011;12193;42.642;23.384;2023-02-03T15:37:10;7.83;;;3.40;;
6424;SDS011;12193;42.642;23.384;2023-02-03T15:39:46;8.77;;;3.27;;
6424;SDS011;12193;42.642;23.384;2023-02-03T15:42:24;5.37;;;3.40;;
6424;SDS011;12193;42.642;23.384;2023-02-03T15:44:58;5.80;;;3.33;;
6424;SDS011;12193;42.642;23.384;2023-02-03T15:47:34;5.27;;;3.03;;
6424;SDS011;12193;42.642;23.384;2023-02-03T15:50:20;5.07;;;2.77;;
6424;SDS011;12193;42.642;23.384;2023-02-03T15:52:56;3.63;;;2.63;;
6424;SDS011;12193;42.642;23.384;2023-02-03T15:55:31;4.80;;;2.90;;
6424;SDS011;12193;42.642;23.384;2023-02-03T15:58:05;5.80;;;3.10;;
6424;SDS011;12193;42.642;23.384;2023-02-03T16:00:41;6.00;;;2.90;;
6424;SDS011;12193;42.642;23.384;2023-02-03T16:03:13;6.00;;;3.13;;
6424;SDS011;12193;42.642;23.384;2023-02-03T16:05:50;6.33;;;3.17;;
6424;SDS011;12193;42.642;23.384;2023-02-03T16:08:25;4.47;;;2.80;;
6424;SDS011;12193;42.642;23.384;2023-02-03T16:10:56;4.80;;;3.00;;
6424;SDS011;12193;42.642;23.384;2023-02-03T16:13:26;3.97;;;2.70;;
6424;SDS011;12193;42.642;23.384;2023-02-03T16:16:02;5.07;;;2.80;;
6424;SDS011;12193;42.642;23.384;2023-02-03T16:18:35;5.57;;;3.00;;
6424;SDS011;12193;42.642;23.384;2023-02-03T16:21:20;6.00;;;3.17;;
6424;SDS011;12193;42.642;23.384;2023-02-03T16:23:54;5.63;;;3.07;;
6424;SDS011;12193;42.642;23.384;2023-02-03T16:26:24;7.53;;;3.47;;
6424;SDS011;12193;42.642;23.384;2023-02-03T16:28:55;5.73;;;3.10;;
6424;SDS011;12193;42.642;23.384;2023-02-03T16:31:53;4.37;;;3.00;;
6424;SDS011;12193;42.642;23.384;2023-02-03T16:34:35;5.27;;;3.83;;
6424;SDS011;12193;42.642;23.384;2023-02-03T16:37:22;5.77;;;3.77;;
6424;SDS011;12193;42.642;23.384;2023-02-03T16:40:06;11.47;;;3.30;;
6424;SDS011;12193;42.642;23.384;2023-02-03T16:42:48;6.10;;;3.57;;
6424;SDS011;12193;42.642;23.384;2023-02-03T16:45:29;4.37;;;3.03;;
6424;SDS011;12193;42.642;23.384;2023-02-03T16:48:11;3.90;;;2.67;;
6424;SDS011;12193;42.642;23.384;2023-02-03T16:50:53;4.33;;;2.37;;
6424;SDS011;12193;42.642;23.384;2023-02-03T16:53:26;3.93;;;2.23;;
6424;SDS011;12193;42.642;23.384;2023-02-03T16:55:57;2.97;;;2.10;;
6424;SDS011;12193;42.642;23.384;2023-02-03T16:58:29;4.83;;;2.20;;
6424;SDS011;12193;42.642;23.384;2023-02-03T17:01:00;3.30;;;2.50;;
6424;SDS011;12193;42.642;23.384;2023-02-03T17:03:32;6.67;;;3.17;;
6424;SDS011;12193;42.642;23.384;2023-02-03T17:06:04;5.40;;;3.13;;
6424;SDS011;12193;42.642;23.384;2023-02-03T17:08:38;7.07;;;3.17;;
6424;SDS011;12193;42.642;23.384;2023-02-03T17:11:09;6.07;;;3.60;;
6424;SDS011;12193;42.642;23.384;2023-02-03T17:13:42;8.70;;;3.40;;
6424;SDS011;12193;42.642;23.384;2023-02-03T17:16:12;7.30;;;3.63;;
6424;SDS011;12193;42.642;23.384;2023-02-03T17:18:43;6.50;;;3.80;;
6424;SDS011;12193;42.642;23.384;2023-02-03T17:21:15;7.00;;;3.53;;
6424;SDS011;12193;42.642;23.384;2023-02-03T17:23:49;5.53;;;3.43;;
6424;SDS011;12193;42.642;23.384;2023-02-03T17:26:18;7.13;;;4.07;;
6424;SDS011;12193;42.642;23.384;2023-02-03T17:28:47;6.60;;;3.70;;
6424;SDS011;12193;42.642;23.384;2023-02-03T17:31:17;10.23;;;3.40;;
6424;SDS011;12193;42.642;23.384;2023-02-03T17:33:49;7.33;;;3.63;;
6424;SDS011;12193;42.642;23.384;2023-02-03T17:36:19;5.97;;;3.50;;
6424;SDS011;12193;42.642;23.384;2023-02-03T17:38:53;5.70;;;3.40;;
6424;SDS011;12193;42.642;23.384;2023-02-03T17:41:23;7.00;;;3.63;;
6424;SDS011;12193;42.642;23.384;2023-02-03T17:43:53;7.27;;;3.40;;
6424;SDS011;12193;42.642;23.384;2023-02-03T17:46:23;11.63;;;4.17;;
6424;SDS011;12193;42.642;23.384;2023-02-03T17:48:54;10.70;;;4.37;;
6424;SDS011;12193;42.642;23.384;2023-02-03T17:51:24;7.23;;;4.50;;
6424;SDS011;12193;42.642;23.384;2023-02-03T17:53:57;10.80;;;4.57;;
6424;SDS011;12193;42.642;23.384;2023-02-03T17:56:31;7.10;;;3.90;;
6424;SDS011;12193;42.642;23.384;2023-02-03T17:59:02;6.13;;;4.07;;
6424;SDS011;12193;42.642;23.384;2023-02-03T18:01:33;8.33;;;3.83;;
6424;SDS011;12193;42.642;23.384;2023-02-03T18:04:03;7.27;;;3.53;;
6424;SDS011;12193;42.642;23.384;2023-02-03T18:06:33;6.43;;;3.97;;
6424;SDS011;12193;42.642;23.384;2023-02-03T18:09:07;9.27;;;4.20;;
6424;SDS011;12193;42.642;23.384;2023-02-03T18:11:38;11.70;;;4.57;;
6424;SDS011;12193;42.642;23.384;2023-02-03T18:14:08;6.23;;;3.93;;
6424;SDS011;12193;42.642;23.384;2023-02-03T18:16:38;8.23;;;4.57;;
6424;SDS011;12193;42.642;23.384;2023-02-03T18:19:09;10.43;;;4.80;;
6424;SDS011;12193;42.642;23.384;2023-02-03T18:21:41;8.40;;;4.80;;
6424;SDS011;12193;42.642;23.384;2023-02-03T18:24:14;10.93;;;4.90;;
6424;SDS011;12193;42.642;23.384;2023-02-03T18:26:47;12.80;;;5.63;;
6424;SDS011;12193;42.642;23.384;2023-02-03T18:29:18;11.80;;;5.57;;
6424;SDS011;12193;42.642;23.384;2023-02-03T18:31:49;11.80;;;6.23;;
6424;SDS011;12193;42.642;23.384;2023-02-03T18:34:18;14.20;;;7.53;;
6424;SDS011;12193;42.642;23.384;2023-02-03T18:36:47;12.97;;;7.30;;
6424;SDS011;12193;42.642;23.384;2023-02-03T18:39:19;19.57;;;8.30;;
6424;SDS011;12193;42.642;23.384;2023-02-03T18:41:49;17.97;;;7.77;;
6424;SDS011;12193;42.642;23.384;2023-02-03T18:44:18;18.93;;;8.37;;
6424;SDS011;12193;42.642;23.384;2023-02-03T18:46:50;18.50;;;8.40;;
6424;SDS011;12193;42.642;23.384;2023-02-03T18:49:21;16.80;;;8.43;;
6424;SDS011;12193;42.642;23.384;2023-02-03T18:51:50;17.90;;;8.80;;
6424;SDS011;12193;42.642;23.384;2023-02-03T18:54:22;16.90;;;7.73;;
6424;SDS011;12193;42.642;23.384;2023-02-03T18:56:54;19.57;;;8.17;;
6424;SDS011;12193;42.642;23.384;2023-02-03T18:59:23;18.47;;;8.77;;
6424;SDS011;12193;42.642;23.384;2023-02-03T19:01:53;20.37;;;9.97;;
6424;SDS011;12193;42.642;23.384;2023-02-03T19:04:22;23.50;;;12.47;;